sensor_id;sensor_type;location;lat;lon;timestamp;P1;durP1;ratioP1;P2;durP2;ratioP2
68987;SDS011;56038;46.080;11.116;2024-02-23T00:01:14;0.60;;;0.60;;
68987;SDS011;56038;46.080;11.116;2024-02-23T00:06:16;1.65;;;1.40;;
68987;SDS011;56038;46.080;11.116;2024-02-23T00:11:19;1.00;;;0.85;;
68987;SDS011;56038;46.080;11.116;2024-02-23T00:16:21;0.75;;;0.70;;
68987;SDS011;56038;46.080;11.116;2024-02-23T00:21:23;0.40;;;0.38;;
68987;SDS011;56038;46.080;11.116;2024-02-23T00:26:26;0.70;;;0.70;;
68987;SDS011;56038;46.080;11.116;2024-02-23T00:31:29;0.50;;;0.50;;
68987;SDS011;56038;46.080;11.116;2024-02-23T00:36:31;0.98;;;0.75;;
68987;SDS011;56038;46.080;11.116;2024-02-23T00:41:34;0.60;;;0.50;;
68987;SDS011;56038;46.080;11.116;2024-02-23T00:46:36;1.05;;;0.60;;
68987;SDS011;56038;46.080;11.116;2024-02-23T00:51:37;0.75;;;0.73;;
68987;SDS011;56038;46.080;11.116;2024-02-23T00:56:41;0.45;;;0.40;;
68987;SDS011;56038;46.080;11.116;2024-02-23T01:01:42;0.95;;;0.80;;
68987;SDS011;56038;46.080;11.116;2024-02-23T01:06:44;0.57;;;0.57;;
68987;SDS011;56038;46.080;11.116;2024-02-23T01:11:47;2.67;;;0.80;;
68987;SDS011;56038;46.080;11.116;2024-02-23T01:16:49;1.45;;;0.88;;
68987;SDS011;56038;46.080;11.116;2024-02-23T01:21:51;1.40;;;1.05;;
68987;SDS011;56038;46.080;11.116;2024-02-23T01:27:00;1.45;;;1.35;;
68987;SDS011;56038;46.080;11.116;2024-02-23T01:32:02;1.35;;;1.25;;
68987;SDS011;56038;46.080;11.116;2024-02-23T01:37:05;0.75;;;0.60;;
68987;SDS011;56038;46.080;11.116;2024-02-23T01:42:08;0.80;;;0.80;;
68987;SDS011;56038;46.080;11.116;2024-02-23T01:47:10;1.17;;;0.88;;
68987;SDS011;56038;46.080;11.116;2024-02-23T01:52:12;1.25;;;0.75;;
68987;SDS011;56038;46.080;11.116;2024-02-23T01:57:16;1.00;;;0.90;;
68987;SDS011;56038;46.080;11.116;2024-02-23T02:02:18;2.58;;;1.20;;
68987;SDS011;56038;46.080;11.116;2024-02-23T02:07:20;0.63;;;0.63;;
68987;SDS011;56038;46.080;11.116;2024-02-23T02:12:29;0.70;;;0.70;;
68987;SDS011;56038;46.080;11.116;2024-02-23T02:17:31;1.08;;;0.98;;
68987;SDS011;56038;46.080;11.116;2024-02-23T02:22:33;1.13;;;1.00;;
68987;SDS011;56038;46.080;11.116;2024-02-23T02:27:36;1.02;;;0.95;;
68987;SDS011;56038;46.080;11.116;2024-02-23T02:32:38;0.82;;;0.80;;
68987;SDS011;56038;46.080;11.116;2024-02-23T02:37:39;2.13;;;0.90;;
68987;SDS011;56038;46.080;11.116;2024-02-23T02:42:43;1.13;;;0.65;;
68987;SDS011;56038;46.080;11.116;2024-02-23T02:47:44;1.42;;;1.33;;
68987;SDS011;56038;46.080;11.116;2024-02-23T02:52:46;1.95;;;1.00;;
68987;SDS011;56038;46.080;11.116;2024-02-23T02:57:49;1.10;;;0.88;;
68987;SDS011;56038;46.080;11.116;2024-02-23T03:02:51;0.80;;;0.75;;
68987;SDS011;56038;46.080;11.116;2024-02-23T03:07:53;1.00;;;0.50;;
68987;SDS011;56038;46.080;11.116;2024-02-23T03:12:56;0.70;;;0.70;;
68987;SDS011;56038;46.080;11.116;2024-02-23T03:17:58;0.82;;;0.82;;
68987;SDS011;56038;46.080;11.116;2024-02-23T03:23:01;0.82;;;0.70;;
68987;SDS011;56038;46.080;11.116;2024-02-23T03:28:05;1.35;;;0.70;;
68987;SDS011;56038;46.080;11.116;2024-02-23T03:33:07;1.70;;;1.00;;
68987;SDS011;56038;46.080;11.116;2024-02-23T03:38:08;2.13;;;0.95;;
68987;SDS011;56038;46.080;11.116;2024-02-23T03:43:11;1.83;;;0.60;;
68987;SDS011;56038;46.080;11.116;2024-02-23T03:48:13;1.13;;;1.02;;
68987;SDS011;56038;46.080;11.116;2024-02-23T03:53:15;1.10;;;1.00;;
68987;SDS011;56038;46.080;11.116;2024-02-23T03:58:18;1.17;;;1.05;;
68987;SDS011;56038;46.080;11.116;2024-02-23T04:03:20;1.20;;;0.95;;
68987;SDS011;56038;46.080;11.116;2024-02-23T04:08:21;1.02;;;1.02;;
68987;SDS011;56038;46.080;11.116;2024-02-23T04:13:24;2.28;;;1.05;;
68987;SDS011;56038;46.080;11.116;2024-02-23T04:18:26;1.25;;;1.15;;
68987;SDS011;56038;46.080;11.116;2024-02-23T04:23:28;1.73;;;1.55;;
68987;SDS011;56038;46.080;11.116;2024-02-23T04:28:31;2.03;;;1.83;;
68987;SDS011;56038;46.080;11.116;2024-02-23T04:33:33;3.05;;;2.35;;
68987;SDS011;56038;46.080;11.116;2024-02-23T04:38:35;3.00;;;2.22;;
68987;SDS011;56038;46.080;11.116;2024-02-23T04:43:38;3.22;;;2.60;;
68987;SDS011;56038;46.080;11.116;2024-02-23T04:48:40;4.70;;;3.22;;
68987;SDS011;56038;46.080;11.116;2024-02-23T04:53:42;4.43;;;3.03;;
68987;SDS011;56038;46.080;11.116;2024-02-23T04:58:46;4.63;;;2.63;;
68987;SDS011;56038;46.080;11.116;2024-02-23T05:03:47;3.30;;;2.30;;
68987;SDS011;56038;46.080;11.116;2024-02-23T05:08:49;4.20;;;3.13;;
68987;SDS011;56038;46.080;11.116;2024-02-23T05:13:53;3.88;;;2.97;;
68987;SDS011;56038;46.080;11.116;2024-02-23T05:18:54;3.13;;;2.28;;
68987;SDS011;56038;46.080;11.116;2024-02-23T05:23:56;3.13;;;2.35;;
68987;SDS011;56038;46.080;11.116;2024-02-23T05:28:59;3.25;;;1.88;;
68987;SDS011;56038;46.080;11.116;2024-02-23T05:34:01;2.67;;;2.10;;
68987;SDS011;56038;46.080;11.116;2024-02-23T05:39:03;2.17;;;1.98;;
68987;SDS011;56038;46.080;11.116;2024-02-23T05:44:06;1.50;;;1.40;;
68987;SDS011;56038;46.080;11.116;2024-02-23T05:49:08;5.13;;;2.03;;
68987;SDS011;56038;46.080;11.116;2024-02-23T05:54:10;2.60;;;1.88;;
68987;SDS011;56038;46.080;11.116;2024-02-23T05:59:14;1.70;;;1.60;;
68987;SDS011;56038;46.080;11.116;2024-02-23T06:04:16;1.42;;;1.33;;
68987;SDS011;56038;46.080;11.116;2024-02-23T06:09:18;2.95;;;1.00;;
68987;SDS011;56038;46.080;11.116;2024-02-23T06:14:21;1.60;;;1.13;;
68987;SDS011;56038;46.080;11.116;2024-02-23T06:19:24;1.05;;;0.90;;
68987;SDS011;56038;46.080;11.116;2024-02-23T06:24:25;1.95;;;0.68;;
68987;SDS011;56038;46.080;11.116;2024-02-23T06:29:28;0.80;;;0.52;;
68987;SDS011;56038;46.080;11.116;2024-02-23T06:34:30;1.98;;;0.60;;
68987;SDS011;56038;46.080;11.116;2024-02-23T06:39:32;1.48;;;0.85;;
68987;SDS011;56038;46.080;11.116;2024-02-23T06:44:35;0.73;;;0.68;;
68987;SDS011;56038;46.080;11.116;2024-02-23T06:49:40;2.60;;;0.70;;
68987;SDS011;56038;46.080;11.116;2024-02-23T06:54:42;0.93;;;0.32;;
68987;SDS011;56038;46.080;11.116;2024-02-23T06:59:46;1.02;;;0.40;;
68987;SDS011;56038;46.080;11.116;2024-02-23T07:04:48;1.55;;;0.55;;
68987;SDS011;56038;46.080;11.116;2024-02-23T07:09:50;0.50;;;0.50;;
68987;SDS011;56038;46.080;11.116;2024-02-23T07:14:53;1.55;;;0.60;;
68987;SDS011;56038;46.080;11.116;2024-02-23T07:19:55;1.70;;;0.55;;
68987;SDS011;56038;46.080;11.116;2024-02-23T07:25:05;0.60;;;0.50;;
68987;SDS011;56038;46.080;11.116;2024-02-23T07:30:09;2.45;;;1.00;;
68987;SDS011;56038;46.080;11.116;2024-02-23T07:35:11;1.88;;;1.38;;
68987;SDS011;56038;46.080;11.116;2024-02-23T07:40:13;1.20;;;0.98;;
68987;SDS011;56038;46.080;11.116;2024-02-23T07:45:17;1.17;;;1.00;;
68987;SDS011;56038;46.080;11.116;2024-02-23T07:50:19;0.93;;;0.80;;
68987;SDS011;56038;46.080;11.116;2024-02-23T07:55:21;1.25;;;0.90;;
68987;SDS011;56038;46.080;11.116;2024-02-23T08:00:24;0.80;;;0.80;;
68987;SDS011;56038;46.080;11.116;2024-02-23T08:05:26;1.63;;;1.20;;
68987;SDS011;56038;46.080;11.116;2024-02-23T08:10:28;1.83;;;0.90;;
68987;SDS011;56038;46.080;11.116;2024-02-23T08:15:31;1.20;;;0.60;;
68987;SDS011;56038;46.080;11.116;2024-02-23T08:20:32;3.42;;;1.20;;
68987;SDS011;56038;46.080;11.116;2024-02-23T08:25:34;1.30;;;1.20;;
68987;SDS011;56038;46.080;11.116;2024-02-23T08:30:37;1.50;;;1.08;;
68987;SDS011;56038;46.080;11.116;2024-02-23T08:35:39;2.50;;;1.15;;
68987;SDS011;56038;46.080;11.116;2024-02-23T08:40:41;4.07;;;1.10;;
68987;SDS011;56038;46.080;11.116;2024-02-23T08:45:44;3.95;;;2.17;;
68987;SDS011;56038;46.080;11.116;2024-02-23T08:50:46;1.75;;;1.05;;
68987;SDS011;56038;46.080;11.116;2024-02-23T08:55:48;1.38;;;1.27;;
68987;SDS011;56038;46.080;11.116;2024-02-23T09:00:51;1.00;;;0.90;;
68987;SDS011;56038;46.080;11.116;2024-02-23T09:05:52;1.27;;;1.00;;
68987;SDS011;56038;46.080;11.116;2024-02-23T09:10:54;1.35;;;1.25;;
68987;SDS011;56038;46.080;11.116;2024-02-23T09:15:58;3.00;;;1.33;;
68987;SDS011;56038;46.080;11.116;2024-02-23T09:20:59;1.48;;;1.38;;
68987;SDS011;56038;46.080;11.116;2024-02-23T09:26:01;2.17;;;1.27;;
68987;SDS011;56038;46.080;11.116;2024-02-23T09:31:11;1.55;;;1.27;;
68987;SDS011;56038;46.080;11.116;2024-02-23T09:36:12;1.63;;;1.02;;
68987;SDS011;56038;46.080;11.116;2024-02-23T09:41:17;1.17;;;1.08;;
68987;SDS011;56038;46.080;11.116;2024-02-23T09:46:22;1.55;;;0.95;;
68987;SDS011;56038;46.080;11.116;2024-02-23T09:51:24;1.13;;;1.00;;
68987;SDS011;56038;46.080;11.116;2024-02-23T09:56:27;1.20;;;1.10;;
68987;SDS011;56038;46.080;11.116;2024-02-23T10:01:31;0.70;;;0.70;;
68987;SDS011;56038;46.080;11.116;2024-02-23T10:06:34;1.45;;;1.35;;
68987;SDS011;56038;46.080;11.116;2024-02-23T10:11:35;2.40;;;1.60;;
68987;SDS011;56038;46.080;11.116;2024-02-23T10:16:38;1.52;;;1.00;;
68987;SDS011;56038;46.080;11.116;2024-02-23T10:21:40;1.50;;;0.93;;
68987;SDS011;56038;46.080;11.116;2024-02-23T10:26:42;1.35;;;1.25;;
68987;SDS011;56038;46.080;11.116;2024-02-23T10:31:45;0.88;;;0.88;;
68987;SDS011;56038;46.080;11.116;2024-02-23T10:36:50;3.15;;;1.48;;
68987;SDS011;56038;46.080;11.116;2024-02-23T10:41:56;2.65;;;1.70;;
68987;SDS011;56038;46.080;11.116;2024-02-23T10:47:00;3.37;;;1.40;;
68987;SDS011;56038;46.080;11.116;2024-02-23T10:52:03;1.48;;;1.27;;
68987;SDS011;56038;46.080;11.116;2024-02-23T10:57:06;1.70;;;1.08;;
68987;SDS011;56038;46.080;11.116;2024-02-23T11:02:09;2.28;;;1.67;;
68987;SDS011;56038;46.080;11.116;2024-02-23T11:07:12;1.10;;;1.00;;
68987;SDS011;56038;46.080;11.116;2024-02-23T11:12:22;2.63;;;1.02;;
68987;SDS011;56038;46.080;11.116;2024-02-23T11:17:27;1.48;;;1.30;;
68987;SDS011;56038;46.080;11.116;2024-02-23T11:22:30;2.00;;;1.58;;
68987;SDS011;56038;46.080;11.116;2024-02-23T11:27:34;1.73;;;1.45;;
68987;SDS011;56038;46.080;11.116;2024-02-23T11:32:38;2.17;;;1.52;;
68987;SDS011;56038;46.080;11.116;2024-02-23T11:37:45;1.17;;;1.13;;
68987;SDS011;56038;46.080;11.116;2024-02-23T11:42:48;5.25;;;3.25;;
68987;SDS011;56038;46.080;11.116;2024-02-23T11:47:52;2.35;;;1.30;;
68987;SDS011;56038;46.080;11.116;2024-02-23T11:52:53;2.20;;;1.30;;
68987;SDS011;56038;46.080;11.116;2024-02-23T11:57:55;1.40;;;1.23;;
68987;SDS011;56038;46.080;11.116;2024-02-23T12:02:58;1.52;;;1.42;;
68987;SDS011;56038;46.080;11.116;2024-02-23T12:08:00;2.22;;;1.48;;
68987;SDS011;56038;46.080;11.116;2024-02-23T12:13:03;1.92;;;1.50;;
68987;SDS011;56038;46.080;11.116;2024-02-23T12:18:06;2.20;;;1.73;;
68987;SDS011;56038;46.080;11.116;2024-02-23T12:23:11;3.20;;;1.50;;
68987;SDS011;56038;46.080;11.116;2024-02-23T12:28:17;3.70;;;1.80;;
68987;SDS011;56038;46.080;11.116;2024-02-23T12:33:20;2.05;;;1.67;;
68987;SDS011;56038;46.080;11.116;2024-02-23T12:38:22;2.70;;;1.58;;
68987;SDS011;56038;46.080;11.116;2024-02-23T12:43:24;1.80;;;1.55;;
68987;SDS011;56038;46.080;11.116;2024-02-23T12:48:27;1.40;;;1.30;;
68987;SDS011;56038;46.080;11.116;2024-02-23T12:53:32;1.10;;;1.00;;
68987;SDS011;56038;46.080;11.116;2024-02-23T12:58:36;1.13;;;0.93;;
68987;SDS011;56038;46.080;11.116;2024-02-23T13:03:41;1.35;;;1.25;;
68987;SDS011;56038;46.080;11.116;2024-02-23T13:08:43;1.83;;;1.20;;
68987;SDS011;56038;46.080;11.116;2024-02-23T13:13:44;3.20;;;1.58;;
68987;SDS011;56038;46.080;11.116;2024-02-23T13:18:48;1.42;;;1.33;;
68987;SDS011;56038;46.080;11.116;2024-02-23T13:23:50;1.02;;;0.95;;
68987;SDS011;56038;46.080;11.116;2024-02-23T13:28:52;1.30;;;1.13;;
68987;SDS011;56038;46.080;11.116;2024-02-23T13:33:55;2.00;;;1.25;;
68987;SDS011;56038;46.080;11.116;2024-02-23T13:38:56;0.90;;;0.90;;
68987;SDS011;56038;46.080;11.116;2024-02-23T13:43:58;1.15;;;1.05;;
68987;SDS011;56038;46.080;11.116;2024-02-23T13:49:04;1.33;;;1.05;;
68987;SDS011;56038;46.080;11.116;2024-02-23T13:54:07;0.98;;;0.98;;
68987;SDS011;56038;46.080;11.116;2024-02-23T13:59:09;2.38;;;1.17;;
68987;SDS011;56038;46.080;11.116;2024-02-23T14:04:12;1.65;;;1.05;;
68987;SDS011;56038;46.080;11.116;2024-02-23T14:09:13;2.00;;;1.00;;
68987;SDS011;56038;46.080;11.116;2024-02-23T14:14:15;0.77;;;0.75;;
68987;SDS011;56038;46.080;11.116;2024-02-23T14:19:19;2.65;;;0.73;;
68987;SDS011;56038;46.080;11.116;2024-02-23T14:24:21;0.68;;;0.50;;
68987;SDS011;56038;46.080;11.116;2024-02-23T14:29:22;0.60;;;0.60;;
68987;SDS011;56038;46.080;11.116;2024-02-23T14:34:26;0.70;;;0.70;;
68987;SDS011;56038;46.080;11.116;2024-02-23T14:39:29;1.52;;;0.93;;
68987;SDS011;56038;46.080;11.116;2024-02-23T14:44:31;0.77;;;0.77;;
68987;SDS011;56038;46.080;11.116;2024-02-23T14:49:34;1.23;;;1.00;;
68987;SDS011;56038;46.080;11.116;2024-02-23T14:54:36;1.40;;;1.30;;
68987;SDS011;56038;46.080;11.116;2024-02-23T14:59:37;2.10;;;1.00;;
68987;SDS011;56038;46.080;11.116;2024-02-23T15:04:47;1.25;;;1.05;;
68987;SDS011;56038;46.080;11.116;2024-02-23T15:09:49;0.57;;;0.57;;
68987;SDS011;56038;46.080;11.116;2024-02-23T15:14:51;0.77;;;0.77;;
68987;SDS011;56038;46.080;11.116;2024-02-23T15:19:54;0.60;;;0.60;;
68987;SDS011;56038;46.080;11.116;2024-02-23T15:24:56;1.58;;;1.48;;
68987;SDS011;56038;46.080;11.116;2024-02-23T15:29:59;1.00;;;1.00;;
68987;SDS011;56038;46.080;11.116;2024-02-23T15:35:03;1.73;;;1.08;;
68987;SDS011;56038;46.080;11.116;2024-02-23T15:40:05;0.82;;;0.82;;
68987;SDS011;56038;46.080;11.116;2024-02-23T15:45:09;1.00;;;0.90;;
68987;SDS011;56038;46.080;11.116;2024-02-23T15:50:13;0.73;;;0.73;;
68987;SDS011;56038;46.080;11.116;2024-02-23T15:55:14;1.23;;;1.13;;
68987;SDS011;56038;46.080;11.116;2024-02-23T16:00:17;1.17;;;1.08;;
68987;SDS011;56038;46.080;11.116;2024-02-23T16:05:20;2.00;;;1.33;;
68987;SDS011;56038;46.080;11.116;2024-02-23T16:10:23;1.25;;;1.15;;
68987;SDS011;56038;46.080;11.116;2024-02-23T16:15:24;1.88;;;1.67;;
68987;SDS011;56038;46.080;11.116;2024-02-23T16:20:27;1.27;;;0.80;;
68987;SDS011;56038;46.080;11.116;2024-02-23T16:25:29;1.17;;;1.08;;
68987;SDS011;56038;46.080;11.116;2024-02-23T16:30:31;1.33;;;1.02;;
68987;SDS011;56038;46.080;11.116;2024-02-23T16:35:34;2.15;;;1.13;;
68987;SDS011;56038;46.080;11.116;2024-02-23T16:40:35;1.20;;;1.10;;
68987;SDS011;56038;46.080;11.116;2024-02-23T16:45:38;1.73;;;1.45;;
68987;SDS011;56038;46.080;11.116;2024-02-23T16:50:41;1.10;;;1.00;;
68987;SDS011;56038;46.080;11.116;2024-02-23T16:55:43;2.17;;;1.13;;
68987;SDS011;56038;46.080;11.116;2024-02-23T17:00:45;1.83;;;1.30;;
68987;SDS011;56038;46.080;11.116;2024-02-23T17:05:48;1.80;;;1.58;;
68987;SDS011;56038;46.080;11.116;2024-02-23T17:10:50;1.38;;;1.20;;
68987;SDS011;56038;46.080;11.116;2024-02-23T17:15:52;2.10;;;1.45;;
68987;SDS011;56038;46.080;11.116;2024-02-23T17:20:55;1.48;;;1.38;;
68987;SDS011;56038;46.080;11.116;2024-02-23T17:25:57;1.50;;;1.40;;
68987;SDS011;56038;46.080;11.116;2024-02-23T17:30:58;1.30;;;1.20;;
68987;SDS011;56038;46.080;11.116;2024-02-23T17:36:02;1.65;;;1.55;;
68987;SDS011;56038;46.080;11.116;2024-02-23T17:41:04;2.72;;;1.35;;
68987;SDS011;56038;46.080;11.116;2024-02-23T17:46:05;1.10;;;1.00;;
68987;SDS011;56038;46.080;11.116;2024-02-23T17:51:09;2.97;;;1.40;;
68987;SDS011;56038;46.080;11.116;2024-02-23T17:56:10;2.20;;;1.20;;
68987;SDS011;56038;46.080;11.116;2024-02-23T18:01:14;4.20;;;1.20;;
68987;SDS011;56038;46.080;11.116;2024-02-23T18:06:18;1.58;;;1.00;;
68987;SDS011;56038;46.080;11.116;2024-02-23T18:11:23;1.08;;;0.85;;
68987;SDS011;56038;46.080;11.116;2024-02-23T18:16:25;1.27;;;1.17;;
68987;SDS011;56038;46.080;11.116;2024-02-23T18:21:30;2.05;;;1.10;;
68987;SDS011;56038;46.080;11.116;2024-02-23T18:26:32;1.48;;;0.90;;
68987;SDS011;56038;46.080;11.116;2024-02-23T18:31:34;1.25;;;1.15;;
68987;SDS011;56038;46.080;11.116;2024-02-23T18:36:37;1.70;;;1.23;;
68987;SDS011;56038;46.080;11.116;2024-02-23T18:41:39;2.45;;;1.73;;
68987;SDS011;56038;46.080;11.116;2024-02-23T18:46:40;1.40;;;1.20;;
68987;SDS011;56038;46.080;11.116;2024-02-23T18:51:44;1.67;;;1.50;;
68987;SDS011;56038;46.080;11.116;2024-02-23T18:56:46;1.80;;;1.70;;
68987;SDS011;56038;46.080;11.116;2024-02-23T19:01:48;1.77;;;1.50;;
68987;SDS011;56038;46.080;11.116;2024-02-23T19:06:51;2.78;;;1.60;;
68987;SDS011;56038;46.080;11.116;2024-02-23T19:11:52;1.50;;;1.30;;
68987;SDS011;56038;46.080;11.116;2024-02-23T19:16:54;1.55;;;1.17;;
68987;SDS011;56038;46.080;11.116;2024-02-23T19:21:58;2.72;;;1.30;;
68987;SDS011;56038;46.080;11.116;2024-02-23T19:27:00;1.52;;;1.42;;
68987;SDS011;56038;46.080;11.116;2024-02-23T19:32:01;1.20;;;1.02;;
68987;SDS011;56038;46.080;11.116;2024-02-23T19:37:05;1.23;;;1.08;;
68987;SDS011;56038;46.080;11.116;2024-02-23T19:42:06;1.50;;;1.30;;
68987;SDS011;56038;46.080;11.116;2024-02-23T19:47:08;0.98;;;0.98;;
68987;SDS011;56038;46.080;11.116;2024-02-23T19:52:11;1.42;;;1.13;;
68987;SDS011;56038;46.080;11.116;2024-02-23T19:57:14;2.85;;;1.10;;
68987;SDS011;56038;46.080;11.116;2024-02-23T20:02:16;2.00;;;1.40;;
68987;SDS011;56038;46.080;11.116;2024-02-23T20:07:20;1.67;;;1.58;;
68987;SDS011;56038;46.080;11.116;2024-02-23T20:12:22;1.75;;;1.48;;
68987;SDS011;56038;46.080;11.116;2024-02-23T20:17:24;1.98;;;1.88;;
68987;SDS011;56038;46.080;11.116;2024-02-23T20:22:29;1.77;;;1.63;;
68987;SDS011;56038;46.080;11.116;2024-02-23T20:27:30;1.85;;;1.75;;
68987;SDS011;56038;46.080;11.116;2024-02-23T20:32:32;1.55;;;1.45;;
68987;SDS011;56038;46.080;11.116;2024-02-23T20:37:35;2.45;;;1.95;;
68987;SDS011;56038;46.080;11.116;2024-02-23T20:42:38;2.40;;;2.20;;
68987;SDS011;56038;46.080;11.116;2024-02-23T20:47:40;2.55;;;2.35;;
68987;SDS011;56038;46.080;11.116;2024-02-23T20:52:43;2.20;;;2.00;;
68987;SDS011;56038;46.080;11.116;2024-02-23T20:57:45;3.53;;;2.03;;
68987;SDS011;56038;46.080;11.116;2024-02-23T21:02:47;3.83;;;3.05;;
68987;SDS011;56038;46.080;11.116;2024-02-23T21:07:50;3.15;;;2.78;;
68987;SDS011;56038;46.080;11.116;2024-02-23T21:12:52;3.72;;;3.15;;
68987;SDS011;56038;46.080;11.116;2024-02-23T21:17:54;2.97;;;2.33;;
68987;SDS011;56038;46.080;11.116;2024-02-23T21:22:57;3.45;;;2.50;;
68987;SDS011;56038;46.080;11.116;2024-02-23T21:27:58;2.33;;;2.13;;
68987;SDS011;56038;46.080;11.116;2024-02-23T21:33:00;2.28;;;1.70;;
68987;SDS011;56038;46.080;11.116;2024-02-23T21:38:03;3.53;;;1.42;;
68987;SDS011;56038;46.080;11.116;2024-02-23T21:43:07;0.90;;;0.88;;
68987;SDS011;56038;46.080;11.116;2024-02-23T21:48:09;0.70;;;0.70;;
68987;SDS011;56038;46.080;11.116;2024-02-23T21:53:12;0.85;;;0.82;;
68987;SDS011;56038;46.080;11.116;2024-02-23T21:58:13;0.70;;;0.70;;
68987;SDS011;56038;46.080;11.116;2024-02-23T22:03:15;1.42;;;1.33;;
68987;SDS011;56038;46.080;11.116;2024-02-23T22:08:20;1.52;;;1.20;;
68987;SDS011;56038;46.080;11.116;2024-02-23T22:13:21;1.38;;;1.10;;
68987;SDS011;56038;46.080;11.116;2024-02-23T22:18:24;1.40;;;1.23;;
68987;SDS011;56038;46.080;11.116;2024-02-23T22:23:29;1.60;;;1.48;;
68987;SDS011;56038;46.080;11.116;2024-02-23T22:28:31;1.25;;;1.15;;
68987;SDS011;56038;46.080;11.116;2024-02-23T22:33:32;1.00;;;1.00;;
68987;SDS011;56038;46.080;11.116;2024-02-23T22:38:36;1.20;;;0.90;;
68987;SDS011;56038;46.080;11.116;2024-02-23T22:43:37;1.35;;;0.90;;
68987;SDS011;56038;46.080;11.116;2024-02-23T22:48:40;1.38;;;1.15;;
68987;SDS011;56038;46.080;11.116;2024-02-23T22:53:43;1.40;;;1.20;;
68987;SDS011;56038;46.080;11.116;2024-02-23T22:58:45;1.45;;;1.27;;
68987;SDS011;56038;46.080;11.116;2024-02-23T23:03:46;1.52;;;1.40;;
68987;SDS011;56038;46.080;11.116;2024-02-23T23:08:50;1.42;;;1.33;;
68987;SDS011;56038;46.080;11.116;2024-02-23T23:13:51;1.25;;;0.90;;
68987;SDS011;56038;46.080;11.116;2024-02-23T23:18:53;1.80;;;0.95;;
68987;SDS011;56038;46.080;11.116;2024-02-23T23:23:56;0.93;;;0.93;;
68987;SDS011;56038;46.080;11.116;2024-02-23T23:28:58;0.95;;;0.90;;
68987;SDS011;56038;46.080;11.116;2024-02-23T23:34:00;0.75;;;0.75;;
68987;SDS011;56038;46.080;11.116;2024-02-23T23:39:03;0.98;;;0.98;;
68987;SDS011;56038;46.080;11.116;2024-02-23T23:44:05;0.63;;;0.63;;
68987;SDS011;56038;46.080;11.116;2024-02-23T23:49:07;1.35;;;1.13;;
68987;SDS011;56038;46.080;11.116;2024-02-23T23:54:10;1.05;;;0.90;;
68987;SDS011;56038;46.080;11.116;2024-02-23T23:59:12;1.30;;;1.20;;
